Time;durP1;ratioP1;P1;durP2;ratioP2;P2;SDS_P1;SDS_P2;PMS_P1;PMS_P2;Temp;Humidity;BMP_temperature;BMP_pressure;BME280_temperature;BME280_humidity;BME280_pressure;Samples;Min_cycle;Max_cycle;Signal;HPM_P1;HPM_P2
2022/01/24 00:01:18;;;;;;;34.65;15.90;;;;;;;5.64;100.00;101853.78;5025806;28;20503;-70
2022/01/24 00:03:44;;;;;;;33.58;15.23;;;;;;;5.65;100.00;101855.47;5023117;28;20026;-70
2022/01/24 00:06:12;;;;;;;32.30;15.30;;;;;;;5.65;100.00;101850.28;5023574;28;20042;-70
2022/01/24 00:08:38;;;;;;;34.53;15.50;;;;;;;5.69;100.00;101857.13;5025165;28;20034;-70
2022/01/24 00:11:09;;;;;;;36.17;16.40;;;;;;;5.65;100.00;101852.88;5026632;28;20033;-69
2022/01/24 00:14:30;;;;;;;36.40;16.73;;;;;;;5.69;100.00;101851.91;5025758;28;20071;-70
2022/01/24 00:27:09;;;;;;;37.95;18.15;;;;;;;5.69;100.00;101844.13;5025970;28;20079;-70
2022/01/24 00:29:34;;;;;;;40.35;17.77;;;;;;;5.70;100.00;101835.41;5026176;28;20042;-70
2022/01/24 00:31:59;;;;;;;36.47;17.50;;;;;;;5.74;100.00;101840.50;5025641;28;20048;-70
2022/01/24 00:34:25;;;;;;;40.42;18.00;;;;;;;5.77;100.00;101840.44;5025801;28;20033;-70
2022/01/24 00:36:51;;;;;;;38.80;17.15;;;;;;;5.74;100.00;101839.66;5044658;28;20028;-71
2022/01/24 00:39:17;;;;;;;39.38;18.35;;;;;;;5.73;100.00;101831.00;5045939;28;20021;-70
2022/01/24 00:42:06;;;;;;;38.42;17.23;;;;;;;5.72;100.00;101829.28;5032516;28;20029;-70
2022/01/24 00:47:01;;;;;;;40.83;17.75;;;;;;;5.66;100.00;101828.56;5026980;28;20033;-70
2022/01/24 00:54:52;;;;;;;37.88;17.23;;;;;;;5.65;100.00;101819.06;5028378;28;20542;-71
2022/01/24 00:57:19;;;;;;;38.97;18.27;;;;;;;5.70;100.00;101819.78;5039405;28;20042;-71
2022/01/24 00:59:45;;;;;;;37.58;17.30;;;;;;;5.69;100.00;101829.34;5027987;28;20030;-70
2022/01/24 01:02:11;;;;;;;41.08;18.10;;;;;;;5.73;100.00;101820.59;5013628;28;20037;-70
2022/01/24 01:05:00;;;;;;;44.20;18.65;;;;;;;5.71;100.00;101822.38;5012506;28;20034;-70
2022/01/24 01:07:32;;;;;;;40.47;19.42;;;;;;;5.71;100.00;101824.97;5009943;28;20033;-69
2022/01/24 01:18:15;;;;;;;43.75;18.08;;;;;;;5.66;100.00;101821.59;5012110;28;20057;-71
2022/01/24 01:21:05;;;;;;;35.13;15.65;;;;;;;5.68;100.00;101824.19;5011950;28;20049;-70
2022/01/24 01:23:30;;;;;;;38.58;16.58;;;;;;;5.72;100.00;101828.44;5011441;28;20037;-72
2022/01/24 01:25:58;;;;;;;41.85;16.60;;;;;;;5.69;100.00;101823.28;5012134;28;20045;-71
2022/01/24 01:28:25;;;;;;;37.17;16.38;;;;;;;5.74;100.00;101830.09;5010059;28;20088;-71
2022/01/24 01:30:54;;;;;;;35.90;15.98;;;;;;;5.78;100.00;101828.28;5011451;28;20036;-67
2022/01/24 01:57:12;;;;;;;55.22;20.70;;;;;;;5.88;100.00;101840.22;5013153;28;20053;-71
2022/01/24 01:59:37;;;;;;;45.55;18.58;;;;;;;5.86;100.00;101844.63;5011469;28;20045;-69
2022/01/24 02:02:02;;;;;;;44.72;18.73;;;;;;;5.88;100.00;101835.00;5011028;28;20411;-70
2022/01/24 02:04:28;;;;;;;43.10;18.38;;;;;;;5.92;100.00;101827.97;5009292;28;20038;-72
2022/01/24 02:06:53;;;;;;;49.97;18.75;;;;;;;5.93;100.00;101830.59;5010449;28;20084;-71
2022/01/24 02:09:18;;;;;;;48.60;19.38;;;;;;;5.89;100.00;101823.69;5010080;28;20028;-70
2022/01/24 02:11:44;;;;;;;46.65;19.25;;;;;;;5.89;100.00;101826.28;5010025;28;20044;-71
2022/01/24 02:14:17;;;;;;;48.47;20.40;;;;;;;5.89;100.00;101812.44;5021974;28;20137;-70
2022/01/24 02:16:49;;;;;;;50.70;20.13;;;;;;;5.88;100.00;101816.78;5023405;28;20030;-71
2022/01/24 02:24:32;;;;;;;53.70;19.60;;;;;;;5.82;100.00;101807.38;5011320;28;20480;-72
2022/01/24 02:26:58;;;;;;;46.42;17.20;;;;;;;5.81;100.00;101813.44;5007441;28;20113;-71
2022/01/24 02:32:08;;;;;;;47.92;17.85;;;;;;;5.79;100.00;101806.59;5010392;28;20038;-70
2022/01/24 02:34:38;;;;;;;38.97;16.42;;;;;;;5.79;100.00;101804.00;5007248;28;20549;-71
2022/01/24 02:37:07;;;;;;;35.88;16.88;;;;;;;5.78;100.00;101803.13;5010454;28;20121;-69
2022/01/24 02:53:21;;;;;;;43.90;16.75;;;;;;;5.71;100.00;101803.28;5009480;28;20041;-71
2022/01/24 02:55:47;;;;;;;43.13;17.63;;;;;;;5.73;100.00;101804.97;5009982;28;20030;-70
2022/01/24 02:58:13;;;;;;;51.08;19.65;;;;;;;5.68;100.00;101806.81;5009981;28;20036;-70
2022/01/24 03:00:39;;;;;;;51.92;20.23;;;;;;;5.67;100.00;101788.63;5010367;28;20053;-72
2022/01/24 03:03:05;;;;;;;54.78;21.88;;;;;;;5.71;100.00;101795.47;5009670;28;20062;-71
2022/01/24 03:05:31;;;;;;;52.35;20.33;;;;;;;5.69;100.00;101799.88;5010257;28;20034;-74
2022/01/24 03:07:57;;;;;;;62.70;22.50;;;;;;;5.68;100.00;101790.38;5008430;28;20053;-69
2022/01/24 03:10:42;;;;;;;59.47;22.10;;;;;;;5.71;100.00;101798.06;5009830;28;20245;-72
2022/01/24 03:13:20;;;;;;;64.18;23.10;;;;;;;5.72;100.00;101802.41;5009694;28;20033;-72
2022/01/24 03:15:50;;;;;;;62.83;22.25;;;;;;;5.74;100.00;101795.41;5005160;28;20490;-71
2022/01/24 03:18:16;;;;;;;67.93;23.60;;;;;;;5.66;100.00;101807.75;5009890;28;20054;-72
2022/01/24 03:20:43;;;;;;;65.53;23.67;;;;;;;5.64;100.00;101796.53;5024274;28;20034;-70
2022/01/24 03:23:10;;;;;;;67.57;22.50;;;;;;;5.69;100.00;101805.06;5027659;28;20662;-72
2022/01/24 03:25:36;;;;;;;70.15;23.83;;;;;;;5.74;100.00;101801.47;5029249;28;20029;-71
2022/01/24 03:28:04;;;;;;;64.10;23.60;;;;;;;5.79;100.00;101798.78;5028967;28;20053;-70
2022/01/24 03:30:29;;;;;;;64.55;23.75;;;;;;;5.79;100.00;101806.59;5028628;28;20030;-70
2022/01/24 03:32:56;;;;;;;67.20;24.08;;;;;;;5.81;100.00;101805.66;5025172;28;20045;-72
2022/01/24 03:35:21;;;;;;;69.97;24.75;;;;;;;5.82;100.00;101803.88;5028664;28;20560;-72
2022/01/24 03:37:46;;;;;;;72.95;25.85;;;;;;;5.85;100.00;101803.81;5029345;28;20033;-71
2022/01/24 03:40:12;;;;;;;70.05;26.27;;;;;;;5.87;100.00;101796.84;5029253;28;20391;-69
2022/01/24 03:42:37;;;;;;;71.30;24.65;;;;;;;5.86;100.00;101792.53;5029694;28;20083;-72
2022/01/24 03:45:06;;;;;;;71.75;25.77;;;;;;;5.86;100.00;101794.28;5028555;28;20076;-72
2022/01/24 03:50:02;;;;;;;70.82;24.08;;;;;;;5.83;100.00;101801.28;5028596;28;20045;-72
2022/01/24 03:52:30;;;;;;;71.78;24.27;;;;;;;5.83;100.00;101801.28;5025287;28;20030;-72
2022/01/24 03:54:56;;;;;;;71.95;25.23;;;;;;;5.81;100.00;101803.03;5028971;28;20017;-71
2022/01/24 03:57:21;;;;;;;74.63;25.75;;;;;;;5.83;100.00;101797.81;5029589;28;20025;-71
2022/01/24 03:59:47;;;;;;;78.18;25.42;;;;;;;5.77;100.00;101804.00;5029126;28;20037;-72
2022/01/24 04:02:14;;;;;;;72.78;24.83;;;;;;;5.79;100.00;101797.03;5029280;28;20491;-69
2022/01/24 04:04:40;;;;;;;82.35;25.55;;;;;;;5.77;100.00;101805.75;5028678;28;20041;-71
2022/01/24 04:07:06;;;;;;;74.68;26.52;;;;;;;5.74;100.00;101806.66;5028614;28;20017;-71
2022/01/24 04:09:33;;;;;;;83.63;26.75;;;;;;;5.71;100.00;101804.16;5029643;28;20025;-70
2022/01/24 04:11:59;;;;;;;77.30;24.48;;;;;;;5.73;100.00;101804.97;5028869;28;20103;-71
2022/01/24 04:14:35;;;;;;;74.03;24.98;;;;;;;5.76;100.00;101804.06;5028272;28;20412;-71
2022/01/24 04:22:17;;;;;;;75.47;26.42;;;;;;;5.69;100.00;101800.72;5028868;28;20556;-71
2022/01/24 04:24:45;;;;;;;75.32;25.42;;;;;;;5.70;100.00;101796.38;5028768;28;20364;-71
2022/01/24 04:27:13;;;;;;;72.55;25.65;;;;;;;5.69;100.00;101794.66;5028846;28;20053;-71
2022/01/24 04:29:39;;;;;;;70.60;24.98;;;;;;;5.74;100.00;101792.81;5030654;28;20526;-71
2022/01/24 04:32:05;;;;;;;73.03;25.33;;;;;;;5.75;100.00;101795.41;5028320;28;20125;-71
2022/01/24 04:34:31;;;;;;;66.32;23.55;;;;;;;5.77;100.00;101801.41;5025748;28;20112;-70
2022/01/24 04:36:56;;;;;;;70.93;25.58;;;;;;;5.72;100.00;101797.22;5032428;28;20029;-72
2022/01/24 04:39:21;;;;;;;69.35;26.88;;;;;;;5.72;100.00;101800.66;5032759;28;20089;-70
2022/01/24 04:41:51;;;;;;;68.15;23.15;;;;;;;5.71;100.00;101798.06;5032411;28;20034;-69
2022/01/24 04:47:12;;;;;;;63.58;23.88;;;;;;;5.73;100.00;101804.13;5032120;28;19917;-71
2022/01/24 04:54:46;;;;;;;72.03;26.48;;;;;;;5.70;100.00;101802.44;5047103;28;20006;-75
2022/01/24 04:57:12;;;;;;;68.43;25.33;;;;;;;5.74;100.00;101803.22;5055001;28;20205;-71
2022/01/24 04:59:39;;;;;;;74.65;26.65;;;;;;;5.75;100.00;101810.16;5049388;28;20580;-70
2022/01/24 05:02:04;;;;;;;76.03;25.00;;;;;;;5.74;100.00;101805.81;5032374;28;20387;-68
2022/01/24 05:04:30;;;;;;;70.85;25.08;;;;;;;5.75;100.00;101810.16;5031412;28;20557;-73
2022/01/24 05:06:55;;;;;;;75.38;25.77;;;;;;;5.70;100.00;101812.00;5031770;28;20032;-71
2022/01/24 05:09:21;;;;;;;85.30;27.23;;;;;;;5.68;100.00;101812.03;5032069;28;20556;-69
2022/01/24 05:11:59;;;;;;;83.43;27.33;;;;;;;5.68;100.00;101814.63;5031155;28;20418;-70
2022/01/24 05:25:48;;;;;;;87.40;26.15;;;;;;;5.76;100.00;101817.91;4975664;28;20399;-88
2022/01/24 05:28:19;;;;;;;77.63;25.40;;;;;;;5.81;100.00;101820.41;5023007;28;20454;-89
2022/01/24 05:31:11;;;;;;;78.63;26.75;;;;;;;5.76;100.00;101820.53;5040923;28;20026;-90
2022/01/24 05:33:39;;;;;;;77.63;25.05;;;;;;;5.76;100.00;101828.34;5029858;28;20041;-88
2022/01/24 05:36:10;;;;;;;81.45;27.20;;;;;;;5.76;100.00;101824.88;5051459;28;20042;-88
2022/01/24 05:38:37;;;;;;;72.93;25.83;;;;;;;5.76;100.00;101830.09;5037224;28;20462;-89
2022/01/24 05:41:05;;;;;;;73.80;24.92;;;;;;;5.77;100.00;101835.25;5039450;28;20044;-90
2022/01/24 05:43:31;;;;;;;69.57;24.00;;;;;;;5.80;100.00;101835.19;5053544;28;20076;-90
2022/01/24 05:46:09;;;;;;;67.15;24.17;;;;;;;5.81;100.00;101839.47;5041167;28;20030;-89
2022/01/24 05:48:39;;;;;;;74.75;25.10;;;;;;;5.77;100.00;101835.25;5051520;28;20040;-90
2022/01/24 05:51:27;;;;;;;;;;;;;;;;;;;;;
2022/01/24 05:53:55;;;;;;;63.78;22.95;;;;;;;5.80;100.00;101836.94;5058698;28;20124;-92
2022/01/24 05:56:27;;;;;;;71.73;24.87;;;;;;;5.77;100.00;101839.59;5055640;28;20055;-91
2022/01/24 05:59:12;;;;;;;60.33;22.00;;;;;;;5.80;100.00;101839.53;5044380;28;20489;-91
2022/01/24 06:01:48;;;;;;;59.03;21.48;;;;;;;5.78;100.00;101842.19;5023254;28;20041;-90
2022/01/24 06:04:26;;;;;;;62.97;22.77;;;;;;;5.78;100.00;101844.78;5041679;28;20044;-92
2022/01/24 06:07:01;;;;;;;63.85;23.33;;;;;;;5.77;100.00;101850.00;5051114;28;20086;-90
2022/01/24 06:09:26;;;;;;;65.05;20.58;;;;;;;5.87;100.00;101838.50;5060963;28;20035;-90
2022/01/24 06:12:03;;;;;;;55.20;20.60;;;;;;;5.88;100.00;101837.59;5067599;28;20068;-88
2022/01/24 06:14:32;;;;;;;54.13;19.92;;;;;;;5.74;100.00;101837.06;5060104;28;20041;-88
2022/01/24 06:16:59;;;;;;;62.53;21.08;;;;;;;5.64;100.00;101835.56;5055573;28;20040;-90
2022/01/24 06:19:27;;;;;;;56.47;21.20;;;;;;;5.66;100.00;101836.38;5056737;28;20147;-89
2022/01/24 06:21:53;;;;;;;53.17;20.50;;;;;;;5.65;100.00;101838.13;5039544;28;20036;-89
2022/01/24 06:24:24;;;;;;;55.15;19.92;;;;;;;5.77;100.00;101837.84;5039502;28;20116;-89
2022/01/24 06:26:52;;;;;;;57.05;20.70;;;;;;;5.86;100.00;101833.31;5036882;28;20453;-86
2022/01/24 06:29:18;;;;;;;62.65;20.90;;;;;;;5.71;100.00;101830.19;5036698;28;20037;-88
2022/01/24 06:31:44;;;;;;;58.53;21.08;;;;;;;5.65;100.00;101826.84;5037196;28;20508;-88
2022/01/24 06:34:13;;;;;;;62.70;20.08;;;;;;;5.65;100.00;101834.66;5030774;28;20111;-88
2022/01/24 06:36:44;;;;;;;57.92;19.77;;;;;;;5.70;100.00;101832.81;5055035;28;20079;-87
2022/01/24 06:39:12;;;;;;;66.20;20.85;;;;;;;5.69;100.00;101825.91;5059103;28;20028;-87
2022/01/24 06:41:38;;;;;;;65.72;22.13;;;;;;;5.70;100.00;101838.88;5055699;28;20029;-88
2022/01/24 06:44:06;;;;;;;66.93;22.48;;;;;;;5.72;100.00;101841.44;5056568;28;20040;-88
2022/01/24 06:46:32;;;;;;;68.65;20.98;;;;;;;5.72;100.00;101844.06;5037745;28;20370;-87
2022/01/24 06:49:09;;;;;;;60.53;20.40;;;;;;;5.75;100.00;101841.38;5059071;28;20025;-87
2022/01/24 06:51:34;;;;;;;70.40;21.02;;;;;;;5.72;100.00;101847.50;5060173;28;20025;-87
2022/01/24 06:54:10;;;;;;;78.30;22.50;;;;;;;5.71;100.00;101842.31;5059734;28;20048;-89
2022/01/24 06:56:44;;;;;;;70.47;22.73;;;;;;;5.73;100.00;101849.22;5057685;28;20040;-88
2022/01/24 06:59:12;;;;;;;69.53;22.00;;;;;;;5.71;100.00;101855.34;5061745;28;20033;-88
2022/01/24 07:01:40;;;;;;;73.53;22.63;;;;;;;5.72;100.00;101857.91;5058742;28;20120;-88
2022/01/24 07:04:06;;;;;;;73.75;24.27;;;;;;;5.72;100.00;101857.91;5055002;28;20028;-88
2022/01/24 07:06:32;;;;;;;69.80;20.83;;;;;;;5.74;100.00;101866.53;5056764;28;20021;-89
2022/01/24 07:09:02;;;;;;;68.97;22.08;;;;;;;5.81;100.00;101867.25;5064295;28;20270;-89
2022/01/24 07:11:30;;;;;;;74.50;23.75;;;;;;;5.82;100.00;101864.66;5057223;28;20044;-89
2022/01/24 07:13:59;;;;;;;67.65;23.50;;;;;;;5.84;100.00;101867.22;5054525;28;20040;-89
2022/01/24 07:16:35;;;;;;;;;;;;;;;5.80;100.00;101863.81;5053621;28;20373;-89
2022/01/24 07:19:03;;;;;;;61.38;20.35;;;;;;;5.84;100.00;101864.59;5054603;28;19931;-89
2022/01/24 07:21:30;;;;;;;61.58;20.80;;;;;;;5.88;100.00;101861.03;5052775;28;20032;-89
2022/01/24 07:23:55;;;;;;;61.63;22.05;;;;;;;5.89;100.00;101865.34;5037860;28;20535;-88
2022/01/24 07:26:23;;;;;;;59.58;21.20;;;;;;;5.94;100.00;101871.38;5050434;28;20045;-89
2022/01/24 07:28:49;;;;;;;65.60;23.42;;;;;;;5.94;100.00;101866.16;5054434;28;20063;-88
2022/01/24 07:31:20;;;;;;;71.85;24.05;;;;;;;5.96;100.00;101869.56;5044446;28;20321;-89
2022/01/24 07:33:45;;;;;;;58.33;21.52;;;;;;;5.98;100.00;101864.34;5053777;28;20371;-88
2022/01/24 07:36:19;;;;;;;61.42;20.10;;;;;;;6.03;100.00;101865.94;5054196;28;20071;-88
2022/01/24 07:38:44;;;;;;;62.47;20.88;;;;;;;6.01;99.59;101865.13;5054832;28;20120;-90
2022/01/24 07:41:14;;;;;;;56.95;21.00;;;;;;;6.04;99.99;101872.00;5054896;28;20425;-88
2022/01/24 07:46:37;;;;;;;55.22;21.10;;;;;;;5.91;99.65;101867.94;5050719;28;20124;-88
2022/01/24 07:49:13;;;;;;;62.75;20.10;;;;;;;5.88;100.00;101873.19;5044048;28;20036;-88
2022/01/24 07:51:40;;;;;;;52.85;19.80;;;;;;;5.92;99.28;101877.44;5065324;28;20040;-88
2022/01/24 07:54:08;;;;;;;50.50;17.83;;;;;;;5.84;99.31;101882.81;5064401;28;20037;-90
2022/01/24 07:56:42;;;;;;;53.70;18.73;;;;;;;5.85;99.73;101879.31;5045881;28;20116;-88
2022/01/24 07:59:07;;;;;;;54.65;18.38;;;;;;;5.87;99.39;101884.50;5058241;28;20432;-89
2022/01/24 08:01:33;;;;;;;60.15;20.95;;;;;;;5.87;99.21;101879.31;5063747;28;20021;-89
2022/01/24 08:03:59;;;;;;;53.47;18.88;;;;;;;5.80;99.26;101886.38;5059524;28;20169;-88
2022/01/24 08:06:34;;;;;;;84.18;35.42;;;;;;;5.82;99.54;101884.59;5060182;28;20017;-87
2022/01/24 08:09:00;;;;;;;91.63;39.58;;;;;;;5.85;99.73;101881.06;5061409;28;20037;-89
2022/01/24 08:11:26;;;;;;;78.40;35.13;;;;;;;5.87;99.47;101879.31;5064374;28;20391;-90
2022/01/24 08:13:55;;;;;;;73.70;26.95;;;;;;;5.86;99.81;101881.06;5064003;28;20385;-91
2022/01/24 08:16:24;;;;;;;57.67;22.45;;;;;;;5.86;99.77;101878.47;5060915;28;20033;-89
2022/01/24 08:18:55;;;;;;;97.30;42.95;;;;;;;5.89;99.78;101885.31;5064352;28;20111;-90
2022/01/24 08:21:28;;;;;;;70.55;26.40;;;;;;;5.87;99.56;101887.97;5065701;28;20024;-89
2022/01/24 08:23:56;;;;;;;66.80;27.23;;;;;;;5.91;99.31;101886.16;5058255;28;20040;-90
2022/01/24 08:26:25;;;;;;;67.67;24.10;;;;;;;5.89;99.17;101883.56;5061151;28;20101;-90
2022/01/24 08:28:52;;;;;;;62.10;22.10;;;;;;;5.93;99.26;101885.28;5050325;28;20045;-88
2022/01/24 08:31:22;;;;;;;60.17;22.40;;;;;;;5.95;98.92;101888.69;5051079;28;20035;-89
2022/01/24 08:33:48;;;;;;;62.67;23.13;;;;;;;6.03;98.72;101886.75;5057127;28;20032;-90
2022/01/24 08:36:18;;;;;;;64.75;22.67;;;;;;;6.15;99.21;101887.38;5058292;28;20040;-87
2022/01/24 08:38:49;;;;;;;60.50;24.70;;;;;;;6.24;98.24;101887.19;5056711;28;20037;-90
2022/01/24 08:41:27;;;;;;;72.35;29.17;;;;;;;6.29;97.51;101893.13;5060559;28;20051;-89
2022/01/24 08:44:16;;;;;;;58.38;22.85;;;;;;;6.27;97.26;101890.56;5047177;28;20118;-87
2022/01/24 08:46:43;;;;;;;54.25;22.35;;;;;;;6.26;97.07;101895.81;5052615;28;20057;-90
2022/01/24 08:49:09;;;;;;;53.78;20.35;;;;;;;6.22;97.01;101894.16;5046583;28;20042;-89
2022/01/24 08:51:50;;;;;;;56.10;21.75;;;;;;;6.30;97.24;101892.22;5042833;28;20033;-90
2022/01/24 08:54:16;;;;;;;66.32;31.33;;;;;;;6.30;97.15;101889.63;5055854;28;20113;-89
2022/01/24 08:56:45;;;;;;;112.18;42.63;;;;;;;6.34;96.89;101895.63;5050156;28;20041;-88
2022/01/24 08:59:12;;;;;;;45.70;20.98;;;;;;;6.32;96.39;101892.22;5053645;28;20144;-90
2022/01/24 09:01:40;;;;;;;51.88;21.52;;;;;;;6.40;95.97;101893.72;5056388;28;20072;-88
2022/01/24 09:04:08;;;;;;;44.00;17.65;;;;;;;6.36;95.77;101894.72;5051824;28;20028;-88
2022/01/24 09:06:33;;;;;;;41.10;19.20;;;;;;;6.29;95.77;101893.97;5088299;28;20384;-89
2022/01/24 09:09:03;;;;;;;45.33;20.38;;;;;;;6.36;95.77;101899.91;5056856;28;20078;-89
2022/01/24 09:11:34;;;;;;;56.45;23.45;;;;;;;6.37;95.86;101888.59;5034896;28;20048;-88
2022/01/24 09:14:12;;;;;;;;;;;;;;;;;;;;;
2022/01/24 09:16:50;;;;;;;;;;;;;;;;;;;;;
2022/01/24 09:19:19;;;;;;;45.58;19.63;;;;;;;6.59;96.25;101890.69;5057128;28;20046;-89
2022/01/24 09:21:44;;;;;;;51.55;20.77;;;;;;;6.60;95.50;101889.78;5069262;28;20024;-87
2022/01/24 09:24:10;;;;;;;41.60;18.77;;;;;;;6.65;95.35;101893.16;5056269;28;20037;-88
2022/01/24 09:26:43;;;;;;;44.22;19.00;;;;;;;6.70;95.15;101892.13;5056952;28;20106;-89
2022/01/24 09:29:12;;;;;;;49.75;18.98;;;;;;;6.70;95.04;101886.91;5056663;28;20131;-89
2022/01/24 09:31:43;;;;;;;51.92;19.67;;;;;;;6.73;95.06;101888.59;5045458;28;20029;-90
2022/01/24 09:34:11;;;;;;;43.10;17.80;;;;;;;6.79;95.46;101888.47;5049645;28;20108;-88
2022/01/24 09:36:39;;;;;;;43.70;16.95;;;;;;;6.78;94.77;101889.31;5056618;28;20477;-89
2022/01/24 09:39:08;;;;;;;42.30;16.23;;;;;;;6.83;94.68;101894.44;5036829;28;20061;-88
2022/01/24 09:41:38;;;;;;;34.22;15.30;;;;;;;6.83;94.16;101897.91;5055114;28;20036;-89
2022/01/24 09:44:03;;;;;;;42.45;17.02;;;;;;;6.83;93.71;101899.66;5055357;28;20053;-89
2022/01/24 09:46:32;;;;;;;44.45;19.63;;;;;;;6.76;94.28;101894.59;5060893;28;20060;-90
2022/01/24 09:49:08;;;;;;;40.65;17.00;;;;;;;6.81;94.49;101893.63;5066782;28;20029;-88
2022/01/24 09:54:44;;;;;;;39.08;16.13;;;;;;;6.82;93.71;101885.75;5018293;28;20098;-89
2022/01/24 09:57:12;;;;;;;40.08;15.85;;;;;;;6.81;93.74;101891.88;5021352;28;20104;-90
2022/01/24 09:59:41;;;;;;;44.70;16.42;;;;;;;6.82;93.69;101887.50;5003695;28;20045;-86
2022/01/24 10:02:09;;;;;;;35.17;15.88;;;;;;;6.90;93.62;101883.81;5009248;28;20054;-90
2022/01/24 10:04:34;;;;;;;40.78;20.13;;;;;;;6.88;93.01;101889.97;4995142;28;20034;-89
2022/01/24 10:07:07;;;;;;;32.58;15.65;;;;;;;6.96;93.30;101893.22;4980580;28;20403;-89
2022/01/24 10:09:53;;;;;;;38.33;16.67;;;;;;;6.93;93.10;101890.69;5016669;28;20034;-91
2022/01/24 10:18:26;;;;;;;34.53;12.15;;;;;;;7.07;92.37;101888.56;5014169;28;20048;-90
2022/01/24 10:20:51;;;;;;;26.98;13.18;;;;;;;7.09;91.98;101884.19;5035407;28;20034;-89
2022/01/24 10:23:26;;;;;;;31.52;16.48;;;;;;;7.11;91.69;101886.75;5033725;28;20033;-90
2022/01/24 10:26:05;;;;;;;29.10;12.93;;;;;;;7.04;91.47;101883.44;5004303;28;20042;-91
2022/01/24 10:28:44;;;;;;;45.45;30.13;;;;;;;6.94;91.34;101882.00;5000194;28;20034;-89
2022/01/24 10:31:18;;;;;;;22.08;10.25;;;;;;;6.85;91.00;101875.25;5012435;28;20029;-90
2022/01/24 10:36:53;;;;;;;21.20;9.55;;;;;;;7.09;91.69;101875.53;5041566;28;20041;-90
2022/01/24 10:42:59;;;;;;;21.45;10.60;;;;;;;7.17;91.32;101870.94;5048078;28;20056;-90
2022/01/24 10:45:11;;;;;;;25.63;11.75;;;;;;;7.19;91.07;101862.19;5029694;28;20037;-90
2022/01/24 10:47:45;;;;;;;27.45;11.60;;;;;;;7.22;91.49;101864.69;5041202;28;20111;-90
2022/01/24 10:50:18;;;;;;;22.83;11.02;;;;;;;7.17;90.78;101866.56;5043704;28;20040;-90
2022/01/24 10:52:47;;;;;;;28.98;12.10;;;;;;;7.12;91.76;101855.41;5044218;28;20182;-90
2022/01/24 10:55:29;;;;;;;25.20;12.35;;;;;;;7.15;91.90;101862.28;5039801;28;20057;-90
2022/01/24 10:58:18;;;;;;;26.27;12.10;;;;;;;7.09;91.80;101852.88;5048093;28;20093;-90
2022/01/24 11:00:53;;;;;;;30.40;13.02;;;;;;;6.98;92.10;101855.78;5003730;28;20434;-89
2022/01/24 11:03:24;;;;;;;28.27;12.73;;;;;;;6.97;92.06;101856.69;5025181;28;20077;-90
2022/01/24 11:05:53;;;;;;;28.75;12.68;;;;;;;7.05;92.20;101850.41;5020806;28;20113;-89
2022/01/24 11:08:19;;;;;;;27.00;12.07;;;;;;;7.03;92.00;101837.41;5008260;28;20048;-89
2022/01/24 11:10:51;;;;;;;26.65;11.98;;;;;;;7.05;91.86;101839.97;5018845;28;20034;-88
2022/01/24 11:13:21;;;;;;;25.40;11.13;;;;;;;7.09;91.19;101839.84;5008065;28;20034;-88
2022/01/24 11:15:58;;;;;;;24.02;11.88;;;;;;;7.10;91.06;101838.94;5018107;28;20029;-89
2022/01/24 11:18:27;;;;;;;18.40;8.23;;;;;;;7.09;90.32;101832.03;5017210;28;20081;-86
2022/01/24 11:21:01;;;;;;;18.30;7.90;;;;;;;7.08;88.22;101829.44;5018976;28;20038;-90
2022/01/24 11:23:30;;;;;;;14.18;6.65;;;;;;;7.06;87.83;101826.03;5001317;28;20069;-90
2022/01/24 11:26:01;;;;;;;17.73;7.13;;;;;;;7.13;87.56;101822.34;4997560;28;20042;-88
2022/01/24 11:28:32;;;;;;;15.70;7.53;;;;;;;7.10;87.25;101815.47;5015355;28;20050;-90
2022/01/24 11:31:11;;;;;;;18.17;6.90;;;;;;;7.18;87.09;101817.84;4996662;28;20035;-89
2022/01/24 11:33:43;;;;;;;10.27;4.57;;;;;;;7.22;85.81;101822.09;5004214;28;20018;-89
2022/01/24 11:36:15;;;;;;;13.35;6.70;;;;;;;7.24;86.24;101815.94;4991714;28;20052;-91
2022/01/24 11:38:49;;;;;;;13.90;7.07;;;;;;;7.22;86.26;101817.72;5034434;28;20082;-89
2022/01/24 11:41:36;;;;;;;17.77;6.72;;;;;;;7.25;86.47;101822.00;5054626;28;20041;-89
2022/01/24 11:44:13;;;;;;;19.25;7.88;;;;;;;7.24;87.22;101821.16;5051326;28;20060;-89
2022/01/24 11:46:48;;;;;;;24.30;10.90;;;;;;;7.20;88.17;101822.13;5053375;28;20052;-90
2022/01/24 11:49:14;;;;;;;20.77;9.85;;;;;;;7.20;88.55;101818.69;5054621;28;20047;-89
2022/01/24 11:51:43;;;;;;;22.90;10.35;;;;;;;7.14;88.20;101811.03;5056609;28;20137;-89
2022/01/24 11:57:49;;;;;;;20.33;8.35;;;;;;;7.13;88.72;101819.75;5053433;28;20504;-91
2022/01/24 12:00:36;;;;;;;24.17;7.93;;;;;;;7.14;88.92;101818.84;5052305;28;20063;-90
2022/01/24 12:03:16;;;;;;;14.05;6.82;;;;;;;7.03;88.55;101812.16;5043794;28;20033;-90
2022/01/24 12:05:51;;;;;;;25.77;13.05;;;;;;;6.94;88.52;101815.03;5058077;28;20033;-90
2022/01/24 12:08:41;;;;;;;17.33;7.75;;;;;;;6.97;87.79;101817.56;5049382;28;20090;-89
2022/01/24 12:11:24;;;;;;;26.20;11.88;;;;;;;6.93;89.67;101810.69;5043078;28;20148;-89
2022/01/24 12:14:11;;;;;;;27.08;12.90;;;;;;;6.74;90.83;101814.69;5050693;28;20043;-91
2022/01/24 12:16:43;;;;;;;17.90;9.23;;;;;;;6.72;91.69;101819.13;5052979;28;20527;-88
2022/01/24 12:19:10;;;;;;;18.88;10.48;;;;;;;6.76;90.91;101810.31;5050486;28;20049;-88
2022/01/24 12:21:38;;;;;;;21.95;10.20;;;;;;;6.82;91.38;101812.75;5058115;28;20039;-89
2022/01/24 12:24:08;;;;;;;19.73;9.02;;;;;;;6.86;90.81;101808.28;5042845;28;20039;-88
2022/01/24 12:26:36;;;;;;;14.23;6.63;;;;;;;6.91;90.97;101809.06;5063616;28;20098;-89
2022/01/24 12:29:05;;;;;;;11.88;5.75;;;;;;;6.99;90.62;101809.69;5042230;28;20037;-89
2022/01/24 12:31:36;;;;;;;;;;;;;;;7.06;89.95;101813.00;5048629;28;20033;-88
2022/01/24 12:34:10;;;;;;;12.65;4.93;;;;;;;7.12;89.26;101805.84;5051952;28;19908;-89
2022/01/24 12:36:39;;;;;;;9.77;4.57;;;;;;;7.10;88.53;101805.03;5048294;28;20106;-88
2022/01/24 12:39:15;;;;;;;;;;;;;;;7.12;88.87;101802.38;5051682;28;20040;-89
2022/01/24 12:41:50;;;;;;;11.27;4.32;;;;;;;7.00;88.11;101807.03;5049165;28;20344;-88
2022/01/24 12:47:13;;;;;;;25.17;8.38;;;;;;;6.92;88.03;101793.34;5053234;28;20109;-89
2022/01/24 12:49:45;;;;;;;17.85;7.60;;;;;;;6.90;88.54;101795.16;5051943;28;20059;-89
2022/01/24 12:52:20;;;;;;;6.93;3.10;;;;;;;6.90;88.66;101789.09;5053263;28;20029;-91
2022/01/24 12:54:52;;;;;;;11.77;5.28;;;;;;;6.90;88.41;101791.72;5043348;28;20045;-88
2022/01/24 12:57:29;;;;;;;16.73;5.63;;;;;;;6.89;88.50;101789.97;5029148;28;20438;-87
2022/01/24 13:00:07;;;;;;;16.67;6.53;;;;;;;6.91;88.30;101789.03;5053268;28;20061;-89
2022/01/24 13:02:42;;;;;;;11.80;5.75;;;;;;;6.93;88.50;101788.97;5055136;28;20033;-89
2022/01/24 13:05:20;;;;;;;6.93;3.75;;;;;;;6.94;88.14;101788.97;5046892;28;20120;-88
2022/01/24 13:07:56;;;;;;;6.20;3.33;;;;;;;6.90;87.10;101791.72;5055593;28;20108;-88
2022/01/24 13:10:24;;;;;;;7.78;3.63;;;;;;;6.94;87.21;101785.50;5052906;28;20032;-90
2022/01/24 13:13:10;;;;;;;8.98;3.33;;;;;;;6.95;88.04;101792.41;5055603;28;20024;-89
2022/01/24 13:21:25;;;;;;;12.80;4.57;;;;;;;6.94;89.19;101783.75;5055125;28;20175;-89
2022/01/24 13:24:00;;;;;;;8.38;3.90;;;;;;;6.94;89.36;101780.28;5029892;28;20082;-90
2022/01/24 13:26:29;;;;;;;10.85;4.07;;;;;;;6.95;89.24;101785.44;5058241;28;20461;-87
2022/01/24 13:29:08;;;;;;;11.00;3.63;;;;;;;6.93;89.34;101786.38;5055525;28;20066;-89
2022/01/24 13:31:33;;;;;;;7.00;2.65;;;;;;;6.90;88.98;101782.13;5059841;28;20037;-87
2022/01/24 13:33:59;;;;;;;6.78;2.80;;;;;;;6.88;88.67;101783.91;5061181;28;20510;-88
2022/01/24 13:36:25;;;;;;;17.80;2.88;;;;;;;6.87;87.65;101782.19;5056142;28;20361;-90
2022/01/24 13:38:51;;;;;;;10.13;2.70;;;;;;;6.87;87.28;101779.59;5057213;28;20051;-89
2022/01/24 13:41:25;;;;;;;14.80;4.68;;;;;;;6.89;87.45;101788.22;5055368;28;20060;-88
2022/01/24 13:44:07;;;;;;;12.23;4.78;;;;;;;6.87;87.91;101782.19;5045712;28;20037;-88